Time;durP1;ratioP1;P1;durP2;ratioP2;P2;SDS_P1;SDS_P2;PMS_P1;PMS_P2;Temp;Humidity;BMP_temperature;BMP_pressure;BME280_temperature;BME280_humidity;BME280_pressure;Samples;Min_cycle;Max_cycle;Signal;HPM_P1;HPM_P2
2022/04/12 00:00:47;;;;;;;;;;;13.80;99.90;;;;;;5022530;28;19918;-59
2022/04/12 00:03:13;;;;;;;;;;;13.70;99.90;;;;;;5009384;28;19922;-61
2022/04/12 00:05:39;;;;;;;;;;;13.70;99.90;;;;;;5008154;28;19927;-59
2022/04/12 00:08:05;;;;;;;;;;;13.70;99.90;;;;;;5009313;28;20389;-59
2022/04/12 00:10:31;;;;;;;;;;;13.70;99.90;;;;;;5006268;28;19929;-59
2022/04/12 00:12:57;;;;;;;;;;;13.60;99.90;;;;;;5008018;28;19952;-59
2022/04/12 00:15:23;;;;;;;;;;;13.60;99.90;;;;;;5006911;28;19960;-60
2022/04/12 00:20:32;;;;;;;;;;;13.50;99.90;;;;;;5012434;28;19928;-59
2022/04/12 00:22:58;;;;;;;;;;;13.50;99.90;;;;;;5012265;28;20290;-59
2022/04/12 00:25:24;;;;;;;;;;;13.50;99.90;;;;;;5010472;28;19909;-60
2022/04/12 00:27:51;;;;;;;;;;;13.50;99.90;;;;;;5010605;28;19921;-59
2022/04/12 00:30:18;;;;;;;;;;;13.50;99.90;;;;;;5010309;28;19920;-59
2022/04/12 00:32:44;;;;;;;;;;;13.40;99.90;;;;;;5013011;28;19929;-59
2022/04/12 00:35:11;;;;;;;;;;;13.40;99.90;;;;;;5014372;28;20631;-59
2022/04/12 00:37:36;;;;;;;;;;;13.40;99.90;;;;;;5009591;28;20345;-59
2022/04/12 00:40:03;;;;;;;;;;;13.30;99.90;;;;;;5010307;28;19944;-60
2022/04/12 00:42:29;;;;;;;;;;;13.30;99.90;;;;;;5010060;28;20370;-58
2022/04/12 00:44:55;;;;;;;;;;;13.20;99.90;;;;;;5010138;28;19963;-59
2022/04/12 00:47:20;;;;;;;;;;;13.20;99.90;;;;;;5011858;28;19917;-59
2022/04/12 00:49:46;;;;;;;;;;;13.20;99.90;;;;;;5011493;28;19914;-58
2022/04/12 00:52:12;;;;;;;;;;;13.10;99.90;;;;;;5024600;28;19913;-59
2022/04/12 00:54:38;;;;;;;;;;;13.10;99.90;;;;;;5010415;28;20378;-60
2022/04/12 00:57:04;;;;;;;;;;;13.00;99.90;;;;;;5010537;28;19910;-59
2022/04/12 00:59:33;;;;;;;;;;;13.00;99.90;;;;;;5011307;28;19920;-58
2022/04/12 01:02:01;;;;;;;;;;;13.00;99.90;;;;;;5011991;28;19920;-59
2022/04/12 01:04:26;;;;;;;;;;;12.90;99.90;;;;;;5009945;28;19945;-58
2022/04/12 01:06:52;;;;;;;;;;;12.90;99.90;;;;;;5009648;28;19968;-59
2022/04/12 01:09:18;;;;;;;;;;;12.90;99.90;;;;;;5009276;28;19936;-58
2022/04/12 01:11:48;;;;;;;;;;;12.80;99.90;;;;;;5009877;28;19914;-58
2022/04/12 01:14:14;;;;;;;;;;;12.80;99.90;;;;;;5009645;28;19957;-57
2022/04/12 01:16:40;;;;;;;;;;;12.80;99.90;;;;;;5011395;28;19913;-59
2022/04/12 01:19:06;;;;;;;;;;;12.70;99.90;;;;;;5009801;28;20026;-58
2022/04/12 01:21:35;;;;;;;;;;;12.70;99.90;;;;;;5009120;28;19922;-59
2022/04/12 01:24:04;;;;;;;;;;;12.70;99.90;;;;;;5008927;28;20016;-58
2022/04/12 01:26:30;;;;;;;;;;;12.70;99.90;;;;;;5011709;28;20338;-59
2022/04/12 01:28:56;;;;;;;;;;;12.70;99.90;;;;;;5010030;28;20032;-59
2022/04/12 01:31:23;;;;;;;;;;;12.70;99.90;;;;;;5009057;28;20008;-59
2022/04/12 01:33:48;;;;;;;;;;;12.60;99.90;;;;;;5009598;28;19922;-58
2022/04/12 01:36:14;;;;;;;;;;;12.60;99.90;;;;;;5008842;28;19925;-58
2022/04/12 01:38:39;;;;;;;;;;;12.50;99.90;;;;;;5009788;28;20367;-59
2022/04/12 01:41:05;;;;;;;;;;;12.50;99.90;;;;;;5012025;28;19909;-58
2022/04/12 01:43:30;;;;;;;;;;;12.50;99.90;;;;;;5009286;28;20016;-58
2022/04/12 01:45:56;;;;;;;;;;;12.50;99.90;;;;;;5009334;28;19921;-58
2022/04/12 01:48:21;;;;;;;;;;;12.50;99.90;;;;;;5008759;28;20398;-59
2022/04/12 01:50:48;;;;;;;;;;;12.50;99.90;;;;;;5008647;28;19914;-58
2022/04/12 01:53:13;;;;;;;;;;;12.40;99.90;;;;;;5012373;28;19944;-59
2022/04/12 01:55:39;;;;;;;;;;;12.40;99.90;;;;;;5009017;28;20277;-57
2022/04/12 01:58:05;;;;;;;;;;;12.30;99.90;;;;;;5008647;28;19914;-59
2022/04/12 02:00:30;;;;;;;;;;;12.30;99.90;;;;;;5008841;28;19913;-58
2022/04/12 02:02:56;;;;;;;;;;;12.30;99.90;;;;;;5010156;28;19948;-59
2022/04/12 02:05:21;;;;;;;;;;;12.20;99.90;;;;;;5010952;28;19920;-58
2022/04/12 02:07:47;;;;;;;;;;;12.20;99.90;;;;;;5009533;28;19964;-58
2022/04/12 02:10:13;;;;;;;;;;;12.20;99.90;;;;;;5008503;28;19925;-58
2022/04/12 02:12:38;;;;;;;;;;;12.20;99.90;;;;;;5008854;28;19967;-59
2022/04/12 02:15:04;;;;;;;;;;;12.20;99.90;;;;;;5008509;28;20416;-59
2022/04/12 02:17:30;;;;;;;;;;;12.20;99.90;;;;;;5010797;28;19910;-59
2022/04/12 02:19:55;;;;;;;;;;;12.20;99.90;;;;;;5009621;28;20294;-59
2022/04/12 02:22:21;;;;;;;;;;;12.20;99.90;;;;;;5009262;28;20015;-58
2022/04/12 02:24:46;;;;;;;;;;;12.10;99.90;;;;;;5008223;28;19925;-58
2022/04/12 02:27:12;;;;;;;;;;;12.10;99.90;;;;;;5008798;28;19921;-58
2022/04/12 02:29:38;;;;;;;;;;;12.10;99.90;;;;;;5010012;28;20391;-58
2022/04/12 02:32:03;;;;;;;;;;;12.10;99.90;;;;;;5011416;28;20023;-58
2022/04/12 02:34:29;;;;;;;;;;;12.10;99.90;;;;;;5008838;28;19914;-58
2022/04/12 02:36:55;;;;;;;;;;;12.10;99.90;;;;;;5008550;28;19943;-58
2022/04/12 02:39:20;;;;;;;;;;;12.10;99.90;;;;;;5008364;28;19960;-58
2022/04/12 02:41:46;;;;;;;;;;;12.10;99.90;;;;;;5009338;28;20019;-58
2022/04/12 02:44:11;;;;;;;;;;;12.10;99.90;;;;;;5012011;28;19917;-57
2022/04/12 02:46:37;;;;;;;;;;;12.10;99.90;;;;;;5008067;28;20096;-57
2022/04/12 02:49:02;;;;;;;;;;;12.10;99.90;;;;;;5008281;28;19913;-57
2022/04/12 02:51:28;;;;;;;;;;;12.10;99.90;;;;;;5008351;28;20413;-57
2022/04/12 02:53:53;;;;;;;;;;;12.10;99.90;;;;;;5007441;28;19918;-58
2022/04/12 02:56:19;;;;;;;;;;;12.10;99.90;;;;;;5010472;28;19929;-56
2022/04/12 02:58:44;;;;;;;;;;;12.00;99.90;;;;;;5008885;28;19909;-58
2022/04/12 03:01:09;;;;;;;;;;;12.00;99.90;;;;;;5007834;28;20008;-58
2022/04/12 03:03:35;;;;;;;;;;;12.00;99.90;;;;;;5008617;28;19921;-59
2022/04/12 03:06:00;;;;;;;;;;;12.00;99.90;;;;;;5022774;28;19953;-58
2022/04/12 03:08:26;;;;;;;;;;;12.00;99.90;;;;;;5010088;28;19913;-59
2022/04/12 03:10:51;;;;;;;;;;;11.90;99.90;;;;;;5024150;28;19928;-58
2022/04/12 03:13:17;;;;;;;;;;;12.00;99.90;;;;;;5007797;28;20008;-58
2022/04/12 03:15:42;;;;;;;;;;;11.90;99.90;;;;;;5007282;28;19929;-58
2022/04/12 03:18:08;;;;;;;;;;;11.90;99.90;;;;;;5007204;28;19913;-57
2022/04/12 03:20:34;;;;;;;;;;;11.90;99.90;;;;;;5008800;28;19929;-57
2022/04/12 03:22:59;;;;;;;;;;;11.90;99.90;;;;;;5009487;28;19940;-58
2022/04/12 03:25:25;;;;;;;;;;;11.90;99.90;;;;;;5007823;28;19913;-57
2022/04/12 03:27:50;;;;;;;;;;;11.80;99.90;;;;;;5002288;28;19922;-57
2022/04/12 03:30:16;;;;;;;;;;;11.80;99.90;;;;;;4996414;28;19914;-56
2022/04/12 03:32:42;;;;;;;;;;;11.80;99.90;;;;;;5007183;28;20343;-56
2022/04/12 03:35:07;;;;;;;;;;;11.80;99.90;;;;;;5010580;28;19910;-56
2022/04/12 03:37:33;;;;;;;;;;;11.80;99.90;;;;;;5007160;28;19965;-57
2022/04/12 03:39:58;;;;;;;;;;;11.80;99.90;;;;;;5006857;28;19914;-57
2022/04/12 03:42:24;;;;;;;;;;;11.80;99.90;;;;;;5007344;28;19921;-56
2022/04/12 03:44:49;;;;;;;;;;;11.80;99.90;;;;;;5007146;28;19932;-57
2022/04/12 03:47:15;;;;;;;;;;;11.80;99.90;;;;;;5010328;28;19924;-56
2022/04/12 03:49:41;;;;;;;;;;;11.80;99.90;;;;;;5007775;28;19964;-57
2022/04/12 03:52:06;;;;;;;;;;;11.80;99.90;;;;;;5007280;28;20000;-57
2022/04/12 03:54:32;;;;;;;;;;;11.80;99.90;;;;;;5010464;28;20294;-56
2022/04/12 03:56:57;;;;;;;;;;;11.80;99.90;;;;;;5011462;28;19968;-54
2022/04/12 03:59:23;;;;;;;;;;;11.80;99.90;;;;;;5012836;28;19914;-55
2022/04/12 04:01:49;;;;;;;;;;;11.80;99.90;;;;;;5012098;28;19910;-56
2022/04/12 04:04:15;;;;;;;;;;;11.70;99.90;;;;;;5010640;28;20279;-57
2022/04/12 04:06:41;;;;;;;;;;;11.70;99.90;;;;;;5011256;28;19971;-56
2022/04/12 04:09:06;;;;;;;;;;;11.70;99.90;;;;;;5010408;28;19914;-57
2022/04/12 04:11:33;;;;;;;;;;;11.70;99.90;;;;;;5012863;28;19914;-57
2022/04/12 04:14:03;;;;;;;;;;;11.70;99.90;;;;;;5012497;28;19964;-56
2022/04/12 04:16:29;;;;;;;;;;;11.70;99.90;;;;;;5010438;28;19921;-57
2022/04/12 04:18:55;;;;;;;;;;;11.70;99.90;;;;;;5010813;28;20397;-56
2022/04/12 04:21:20;;;;;;;;;;;11.70;99.90;;;;;;5010709;28;19918;-57
2022/04/12 04:23:46;;;;;;;;;;;11.70;99.90;;;;;;5010332;28;19960;-58
2022/04/12 04:26:11;;;;;;;;;;;11.60;99.90;;;;;;5013893;28;19945;-57
2022/04/12 04:28:39;;;;;;;;;;;11.60;99.90;;;;;;5010594;28;19918;-58
2022/04/12 04:31:04;;;;;;;;;;;11.60;99.90;;;;;;5010263;28;19917;-57
2022/04/12 04:33:30;;;;;;;;;;;11.60;99.90;;;;;;5010760;28;19914;-57
2022/04/12 04:35:56;;;;;;;;;;;11.60;99.90;;;;;;5011369;28;20355;-58
2022/04/12 04:38:21;;;;;;;;;;;11.60;99.90;;;;;;5013974;28;19917;-57
2022/04/12 04:40:48;;;;;;;;;;;11.50;99.90;;;;;;5012004;28;19920;-57
2022/04/12 04:43:15;;;;;;;;;;;11.50;99.90;;;;;;5010495;28;19949;-57
2022/04/12 04:45:43;;;;;;;;;;;11.50;99.90;;;;;;5009737;28;19917;-58
2022/04/12 04:48:08;;;;;;;;;;;11.50;99.90;;;;;;5011346;28;20008;-57
2022/04/12 04:50:34;;;;;;;;;;;11.40;99.90;;;;;;5012055;28;20004;-58
2022/04/12 04:53:02;;;;;;;;;;;11.40;99.90;;;;;;5012357;28;20366;-57
2022/04/12 04:55:27;;;;;;;;;;;11.30;99.90;;;;;;5010524;28;19956;-57
2022/04/12 04:57:54;;;;;;;;;;;11.30;99.90;;;;;;5010240;28;19957;-56
2022/04/12 05:00:19;;;;;;;;;;;11.30;99.90;;;;;;5010334;28;19948;-57
2022/04/12 05:02:46;;;;;;;;;;;11.20;99.90;;;;;;5010850;28;19995;-58
2022/04/12 05:05:12;;;;;;;;;;;11.20;99.90;;;;;;5014183;28;19972;-57
2022/04/12 05:07:38;;;;;;;;;;;11.10;99.90;;;;;;5009861;28;20386;-58
2022/04/12 05:10:04;;;;;;;;;;;11.10;99.90;;;;;;5009674;28;19956;-57
2022/04/12 05:12:29;;;;;;;;;;;11.10;99.90;;;;;;5010044;28;20000;-55
2022/04/12 05:14:55;;;;;;;;;;;11.10;99.90;;;;;;5010273;28;20447;-58
2022/04/12 05:17:27;;;;;;;;;;;11.00;99.90;;;;;;5012432;28;19917;-57
2022/04/12 05:19:53;;;;;;;;;;;11.00;99.90;;;;;;5011193;28;19935;-57
2022/04/12 05:22:18;;;;;;;;;;;11.00;99.90;;;;;;5010063;28;19913;-59
2022/04/12 05:24:47;;;;;;;;;;;11.00;99.90;;;;;;5009718;28;19920;-57
2022/04/12 05:27:13;;;;;;;;;;;11.00;99.90;;;;;;5010134;28;19953;-57
2022/04/12 05:29:38;;;;;;;;;;;11.00;99.90;;;;;;5010354;28;19949;-59
2022/04/12 05:32:04;;;;;;;;;;;11.00;99.90;;;;;;5012258;28;19916;-56
2022/04/12 05:34:30;;;;;;;;;;;11.00;99.90;;;;;;5010874;28;19922;-59
2022/04/12 05:36:55;;;;;;;;;;;11.00;99.90;;;;;;5009652;28;20016;-59
2022/04/12 05:39:20;;;;;;;;;;;11.00;99.90;;;;;;5010295;28;19968;-56
2022/04/12 05:41:46;;;;;;;;;;;11.00;99.90;;;;;;5009305;28;19913;-59
2022/04/12 05:44:11;;;;;;;;;;;11.00;99.90;;;;;;5013437;28;19945;-59
2022/04/12 05:46:37;;;;;;;;;;;11.10;99.90;;;;;;5009529;28;19928;-59
2022/04/12 05:49:02;;;;;;;;;;;11.10;99.90;;;;;;5009647;28;19979;-59
2022/04/12 05:51:28;;;;;;;;;;;11.20;99.90;;;;;;5010210;28;19913;-56
2022/04/12 05:53:53;;;;;;;;;;;11.20;99.90;;;;;;5008977;28;19921;-59
2022/04/12 05:56:19;;;;;;;;;;;11.20;99.90;;;;;;5011799;28;19914;-58
2022/04/12 05:58:45;;;;;;;;;;;11.20;99.90;;;;;;5010412;28;19909;-59
2022/04/12 06:01:11;;;;;;;;;;;11.30;99.90;;;;;;5009129;28;19949;-59
2022/04/12 06:03:36;;;;;;;;;;;11.30;99.90;;;;;;5008652;28;20023;-59
2022/04/12 06:06:02;;;;;;;;;;;11.40;99.90;;;;;;5008970;28;20008;-59
2022/04/12 06:08:28;;;;;;;;;;;11.40;99.90;;;;;;5011405;28;19924;-59
2022/04/12 06:10:53;;;;;;;;;;;11.40;99.90;;;;;;5010315;28;19909;-58
2022/04/12 06:13:19;;;;;;;;;;;11.50;99.90;;;;;;5008809;28;19913;-60
2022/04/12 06:15:44;;;;;;;;;;;11.50;99.90;;;;;;5008647;28;20370;-59
2022/04/12 06:18:10;;;;;;;;;;;11.60;99.90;;;;;;5009036;28;19914;-59
2022/04/12 06:20:36;;;;;;;;;;;11.60;99.90;;;;;;5009890;28;19937;-59
2022/04/12 06:23:02;;;;;;;;;;;11.70;99.90;;;;;;5011589;28;20370;-59
2022/04/12 06:25:27;;;;;;;;;;;11.80;99.90;;;;;;5008247;28;19913;-60
2022/04/12 06:27:53;;;;;;;;;;;11.80;99.90;;;;;;5008647;28;19980;-60
2022/04/12 06:30:20;;;;;;;;;;;11.80;99.90;;;;;;5008858;28;20434;-60
2022/04/12 06:32:46;;;;;;;;;;;11.90;99.90;;;;;;5009134;28;20445;-59
2022/04/12 06:35:12;;;;;;;;;;;11.90;99.90;;;;;;5012151;28;19909;-59
2022/04/12 06:37:41;;;;;;;;;;;11.90;99.90;;;;;;5008971;28;19913;-59
2022/04/12 06:40:08;;;;;;;;;;;12.00;99.90;;;;;;5008016;28;19948;-58
2022/04/12 06:42:34;;;;;;;;;;;12.00;99.90;;;;;;5008483;28;20294;-59
2022/04/12 06:44:59;;;;;;;;;;;12.10;99.90;;;;;;5008276;28;20426;-59
2022/04/12 06:47:25;;;;;;;;;;;12.10;99.90;;;;;;5010649;28;20382;-59
2022/04/12 06:49:51;;;;;;;;;;;12.20;99.90;;;;;;5009675;28;20429;-59
2022/04/12 06:52:18;;;;;;;;;;;12.20;99.90;;;;;;5007872;28;20005;-60
2022/04/12 06:54:43;;;;;;;;;;;12.30;99.90;;;;;;5007506;28;19918;-60
2022/04/12 06:57:09;;;;;;;;;;;12.30;99.90;;;;;;5008597;28;19959;-59
2022/04/12 06:59:34;;;;;;;;;;;12.30;99.90;;;;;;5008938;28;21481;-58
2022/04/12 07:02:01;;;;;;;;;;;12.40;99.90;;;;;;5011138;28;19921;-57
2022/04/12 07:04:27;;;;;;;;;;;12.40;99.90;;;;;;5007926;28;19913;-59
2022/04/12 07:06:52;;;;;;;;;;;12.50;99.90;;;;;;5007684;28;19921;-59
2022/04/12 07:09:20;;;;;;;;;;;12.50;99.90;;;;;;5008338;28;19913;-59
2022/04/12 07:11:48;;;;;;;;;;;12.50;99.90;;;;;;4992742;28;19918;-60
2022/04/12 07:14:14;;;;;;;;;;;12.50;99.90;;;;;;5010831;28;19953;-58
2022/04/12 07:16:39;;;;;;;;;;;12.60;99.90;;;;;;5023573;28;19964;-59
2022/04/12 07:19:06;;;;;;;;;;;12.60;99.90;;;;;;5014022;28;20291;-58
2022/04/12 07:21:31;;;;;;;;;;;12.60;99.90;;;;;;5014166;28;19917;-57
2022/04/12 07:23:59;;;;;;;;;;;12.60;99.90;;;;;;5017073;28;19925;-58
2022/04/12 07:26:27;;;;;;;;;;;12.70;99.90;;;;;;5010261;28;19917;-58
2022/04/12 07:28:53;;;;;;;;;;;12.70;99.90;;;;;;5004851;28;19921;-58
2022/04/12 07:31:18;;;;;;;;;;;12.70;99.90;;;;;;5007430;28;20271;-58
2022/04/12 07:33:44;;;;;;;;;;;12.70;99.90;;;;;;5010707;28;19914;-59
2022/04/12 07:36:10;;;;;;;;;;;12.70;99.90;;;;;;5008117;28;19914;-59
2022/04/12 07:38:35;;;;;;;;;;;12.80;99.90;;;;;;5008309;28;19925;-58
2022/04/12 07:41:01;;;;;;;;;;;12.80;99.90;;;;;;5009616;28;19924;-58
2022/04/12 07:43:26;;;;;;;;;;;12.90;99.90;;;;;;5009385;28;19918;-61
2022/04/12 07:45:52;;;;;;;;;;;12.90;99.90;;;;;;5009637;28;19988;-62
2022/04/12 07:48:17;;;;;;;;;;;13.00;99.90;;;;;;5018519;28;19921;-61
2022/04/12 07:50:43;;;;;;;;;;;13.10;99.90;;;;;;5007843;28;19924;-61
2022/04/12 07:53:08;;;;;;;;;;;13.10;99.90;;;;;;5011011;28;19909;-61
2022/04/12 07:55:34;;;;;;;;;;;13.10;99.90;;;;;;5008056;28;19913;-61
2022/04/12 07:57:59;;;;;;;;;;;13.20;99.90;;;;;;5007407;28;20008;-62
2022/04/12 08:00:25;;;;;;;;;;;13.30;99.90;;;;;;5007556;28;20386;-62
2022/04/12 08:02:50;;;;;;;;;;;13.40;99.90;;;;;;5007459;28;19914;-61
2022/04/12 08:05:16;;;;;;;;;;;13.40;99.90;;;;;;5010700;28;20375;-63
2022/04/12 08:07:47;;;;;;;;;;;13.50;99.90;;;;;;5008091;28;19945;-61
2022/04/12 08:10:14;;;;;;;;;;;13.60;99.90;;;;;;5007355;28;19925;-62
2022/04/12 08:12:39;;;;;;;;;;;13.60;99.90;;;;;;5007720;28;20437;-62
2022/04/12 08:15:05;;;;;;;;;;;13.70;99.90;;;;;;5007685;28;20020;-60
2022/04/12 08:17:31;;;;;;;;;;;13.70;99.90;;;;;;5009344;28;19909;-61
2022/04/12 08:19:56;;;;;;;;;;;13.80;99.90;;;;;;5009116;28;19963;-62
2022/04/12 08:22:22;;;;;;;;;;;13.90;99.90;;;;;;5007342;28;19913;-61
2022/04/12 08:24:47;;;;;;;;;;;14.00;99.90;;;;;;5007118;28;19917;-61
2022/04/12 08:27:13;;;;;;;;;;;14.10;99.90;;;;;;5007547;28;19936;-62
2022/04/12 08:29:38;;;;;;;;;;;14.10;99.90;;;;;;5008624;28;19917;-61
2022/04/12 08:32:04;;;;;;;;;;;14.20;99.90;;;;;;5010282;28;20331;-61
2022/04/12 08:34:29;;;;;;;;;;;14.30;99.90;;;;;;5007326;28;20477;-61
2022/04/12 08:36:55;;;;;;;;;;;14.30;99.90;;;;;;5007075;28;19913;-62
2022/04/12 08:39:20;;;;;;;;;;;14.40;99.90;;;;;;5009208;28;19924;-62
2022/04/12 08:41:46;;;;;;;;;;;14.50;99.90;;;;;;5011269;28;19917;-60
2022/04/12 08:44:12;;;;;;;;;;;14.60;99.90;;;;;;5014321;28;19988;-62
2022/04/12 08:46:41;;;;;;;;;;;14.80;99.90;;;;;;5010843;28;19918;-59
2022/04/12 08:49:08;;;;;;;;;;;14.90;99.90;;;;;;5010752;28;20007;-62
2022/04/12 08:51:34;;;;;;;;;;;14.90;99.90;;;;;;5010388;28;19964;-62
2022/04/12 08:54:00;;;;;;;;;;;15.00;99.90;;;;;;5010772;28;20379;-58
2022/04/12 08:56:27;;;;;;;;;;;15.10;99.90;;;;;;5012552;28;19932;-63
2022/04/12 08:58:53;;;;;;;;;;;15.10;99.90;;;;;;5012040;28;19909;-65
2022/04/12 09:01:18;;;;;;;;;;;15.20;99.90;;;;;;5010346;28;19914;-62
2022/04/12 09:03:45;;;;;;;;;;;15.30;99.90;;;;;;5010258;28;19920;-60
2022/04/12 09:06:12;;;;;;;;;;;15.40;99.90;;;;;;5010103;28;19909;-59
2022/04/12 09:08:37;;;;;;;;;;;15.40;99.90;;;;;;5011693;28;19914;-61
2022/04/12 09:11:04;;;;;;;;;;;15.50;99.90;;;;;;5013009;28;19975;-62
2022/04/12 09:13:30;;;;;;;;;;;15.60;99.90;;;;;;5010147;28;19909;-61
2022/04/12 09:15:56;;;;;;;;;;;15.70;99.90;;;;;;5010240;28;19920;-61
2022/04/12 09:18:31;;;;;;;;;;;15.80;99.90;;;;;;5010716;28;20365;-60
2022/04/12 09:21:08;;;;;;;;;;;15.80;99.90;;;;;;5010009;28;19922;-61
2022/04/12 09:23:34;;;;;;;;;;;15.80;99.90;;;;;;5011250;28;19970;-61
2022/04/12 09:25:59;;;;;;;;;;;15.90;99.90;;;;;;5012215;28;19913;-61
2022/04/12 09:28:24;;;;;;;;;;;15.90;99.90;;;;;;5010116;28;19921;-60
2022/04/12 09:30:53;;;;;;;;;;;16.00;99.90;;;;;;5009794;28;19920;-61
2022/04/12 09:33:34;;;;;;;;;;;16.00;99.90;;;;;;5009754;28;19914;-61
2022/04/12 09:36:00;;;;;;;;;;;16.10;99.90;;;;;;5009983;28;20363;-61
2022/04/12 09:38:36;;;;;;;;;;;16.20;99.90;;;;;;5012140;28;19910;-62
2022/04/12 09:41:19;;;;;;;;;;;16.20;99.90;;;;;;5012109;28;19909;-61
2022/04/12 09:43:50;;;;;;;;;;;16.20;99.90;;;;;;5011125;28;19955;-61
2022/04/12 09:46:16;;;;;;;;;;;16.20;99.90;;;;;;5009324;28;19917;-60
2022/04/12 09:48:45;;;;;;;;;;;16.20;99.90;;;;;;5009779;28;19918;-59
2022/04/12 09:51:11;;;;;;;;;;;16.20;99.90;;;;;;5008789;28;19918;-60
2022/04/12 09:53:38;;;;;;;;;;;16.40;99.90;;;;;;5010819;28;19964;-60
2022/04/12 09:56:22;;;;;;;;;;;16.40;99.90;;;;;;5012025;28;19920;-60
2022/04/12 09:58:52;;;;;;;;;;;16.40;99.90;;;;;;5011930;28;19956;-59
2022/04/12 10:01:18;;;;;;;;;;;16.50;99.90;;;;;;5009153;28;20402;-60
2022/04/12 10:03:45;;;;;;;;;;;16.50;99.90;;;;;;5009245;28;19940;-60
2022/04/12 10:06:11;;;;;;;;;;;16.50;99.90;;;;;;5009412;28;20000;-59
2022/04/12 10:08:37;;;;;;;;;;;16.60;99.90;;;;;;5010753;28;20434;-61
2022/04/12 10:11:02;;;;;;;;;;;16.60;99.90;;;;;;5011701;28;20008;-60
2022/04/12 10:13:28;;;;;;;;;;;16.70;99.90;;;;;;5009209;28;19914;-59
2022/04/12 10:15:55;;;;;;;;;;;16.70;99.90;;;;;;5009496;28;19923;-59
2022/04/12 10:18:20;;;;;;;;;;;16.80;99.90;;;;;;5009018;28;19917;-59
2022/04/12 10:20:46;;;;;;;;;;;16.80;99.90;;;;;;5009012;28;19929;-60
2022/04/12 10:23:12;;;;;;;;;;;16.90;99.90;;;;;;5012623;28;19910;-60
2022/04/12 10:25:38;;;;;;;;;;;16.90;99.90;;;;;;5009207;28;20358;-60
2022/04/12 10:28:04;;;;;;;;;;;17.10;99.90;;;;;;5008773;28;19972;-59
2022/04/12 10:30:31;;;;;;;;;;;17.10;99.90;;;;;;5008976;28;19972;-60
2022/04/12 10:33:01;;;;;;;;;;;17.10;99.90;;;;;;5008977;28;20301;-60
2022/04/12 10:35:54;;;;;;;;;;;17.10;99.90;;;;;;5011333;28;20333;-61
2022/04/12 10:38:20;;;;;;;;;;;17.20;99.90;;;;;;5011294;28;20366;-61
2022/04/12 10:40:47;;;;;;;;;;;17.20;99.90;;;;;;5009845;28;19918;-58
2022/04/12 10:43:13;;;;;;;;;;;17.30;99.50;;;;;;5008434;28;19992;-62
2022/04/12 10:45:46;;;;;;;;;;;17.40;99.90;;;;;;5008555;28;20412;-62
2022/04/12 10:48:25;;;;;;;;;;;17.40;99.90;;;;;;5008554;28;19953;-62
2022/04/12 10:50:51;;;;;;;;;;;17.60;99.90;;;;;;4993877;28;19928;-61
2022/04/12 10:53:35;;;;;;;;;;;17.70;99.90;;;;;;5011644;28;19910;-61
2022/04/12 10:56:04;;;;;;;;;;;17.70;99.90;;;;;;5011000;28;19916;-61
2022/04/12 10:58:30;;;;;;;;;;;17.80;99.90;;;;;;5008313;28;19913;-62
2022/04/12 11:00:56;;;;;;;;;;;17.80;99.90;;;;;;5007979;28;19917;-61
2022/04/12 11:03:40;;;;;;;;;;;17.90;99.90;;;;;;5008377;28;20401;-60
2022/04/12 11:06:11;;;;;;;;;;;17.90;99.70;;;;;;5008376;28;20398;-61
2022/04/12 11:08:37;;;;;;;;;;;18.00;99.90;;;;;;5009894;28;19929;-61
2022/04/12 11:11:04;;;;;;;;;;;18.00;99.20;;;;;;5010571;28;19910;-61
2022/04/12 11:13:30;;;;;;;;;;;18.00;99.00;;;;;;5008007;28;19913;-61
2022/04/12 11:15:57;;;;;;;;;;;18.10;98.50;;;;;;5007801;28;20392;-60
2022/04/12 11:18:22;;;;;;;;;;;18.20;99.90;;;;;;5008205;28;19921;-60
2022/04/12 11:21:01;;;;;;;;;;;18.20;99.50;;;;;;5007514;28;19925;-61
2022/04/12 11:23:46;;;;;;;;;;;18.30;99.10;;;;;;5010498;28;19967;-61
2022/04/12 11:26:31;;;;;;;;;;;18.30;98.00;;;;;;5007864;28;19917;-61
2022/04/12 11:28:56;;;;;;;;;;;18.30;99.20;;;;;;5009686;28;19918;-61
2022/04/12 11:31:22;;;;;;;;;;;18.40;99.90;;;;;;5009565;28;19913;-60
2022/04/12 11:33:48;;;;;;;;;;;18.40;97.00;;;;;;5007992;28;19920;-60
2022/04/12 11:36:17;;;;;;;;;;;18.40;99.30;;;;;;5007946;28;19980;-61
2022/04/12 11:38:42;;;;;;;;;;;18.40;99.90;;;;;;5008766;28;19913;-61
2022/04/12 11:41:07;;;;;;;;;;;18.50;99.90;;;;;;5010820;28;19909;-61
2022/04/12 11:43:34;;;;;;;;;;;18.50;98.90;;;;;;5008026;28;19937;-60
2022/04/12 11:46:01;;;;;;;;;;;18.50;97.20;;;;;;5007437;28;19913;-61
2022/04/12 11:48:31;;;;;;;;;;;18.50;99.50;;;;;;5007707;28;19928;-60
2022/04/12 11:50:57;;;;;;;;;;;18.40;99.60;;;;;;5007776;28;19968;-60
2022/04/12 11:53:23;;;;;;;;;;;18.50;98.60;;;;;;5008822;28;19909;-62
2022/04/12 11:55:49;;;;;;;;;;;18.50;99.80;;;;;;5010111;28;19914;-61
2022/04/12 11:58:14;;;;;;;;;;;18.60;99.80;;;;;;5007662;28;20073;-61
2022/04/12 12:00:40;;;;;;;;;;;18.60;98.50;;;;;;5006858;28;19947;-61
2022/04/12 12:03:12;;;;;;;;;;;18.70;99.10;;;;;;5007820;28;19968;-61
2022/04/12 12:05:37;;;;;;;;;;;18.60;98.40;;;;;;5008893;28;19920;-60
2022/04/12 12:08:03;;;;;;;;;;;18.70;98.00;;;;;;5010131;28;19921;-60
2022/04/12 12:10:30;;;;;;;;;;;18.70;97.70;;;;;;5007676;28;20272;-59
2022/04/12 12:12:56;;;;;;;;;;;18.80;99.70;;;;;;5007233;28;20359;-58
2022/04/12 12:15:24;;;;;;;;;;;18.90;98.40;;;;;;5011368;28;19913;-60
2022/04/12 12:17:51;;;;;;;;;;;18.90;97.90;;;;;;5011723;28;19913;-61
2022/04/12 12:20:18;;;;;;;;;;;18.90;95.60;;;;;;5014193;28;20646;-60
2022/04/12 12:22:44;;;;;;;;;;;19.00;93.90;;;;;;5011999;28;19925;-61
2022/04/12 12:25:13;;;;;;;;;;;19.00;98.00;;;;;;5026541;28;19914;-60
2022/04/12 12:27:39;;;;;;;;;;;19.10;96.90;;;;;;5009899;28;19922;-60
2022/04/12 12:30:13;;;;;;;;;;;19.10;96.30;;;;;;5010360;28;19977;-59
2022/04/12 12:32:40;;;;;;;;;;;19.10;94.40;;;;;;5002795;28;20567;-62
2022/04/12 12:35:06;;;;;;;;;;;19.20;96.20;;;;;;5013009;28;19941;-60
2022/04/12 12:37:32;;;;;;;;;;;19.20;97.60;;;;;;5013331;28;20431;-61
2022/04/12 12:39:57;;;;;;;;;;;19.30;96.70;;;;;;5012874;28;20013;-61
2022/04/12 12:42:23;;;;;;;;;;;19.30;97.90;;;;;;5012323;28;20342;-61
2022/04/12 12:44:48;;;;;;;;;;;19.30;94.30;;;;;;5011079;28;19945;-61
2022/04/12 12:47:14;;;;;;;;;;;19.30;97.00;;;;;;5013085;28;19921;-61
2022/04/12 12:49:40;;;;;;;;;;;19.30;95.80;;;;;;5014262;28;20048;-59
2022/04/12 12:52:10;;;;;;;;;;;19.40;96.20;;;;;;5012622;28;19984;-60
2022/04/12 12:54:37;;;;;;;;;;;19.40;95.50;;;;;;5011725;28;20412;-61
2022/04/12 12:57:03;;;;;;;;;;;19.50;92.30;;;;;;5012046;28;20004;-60
2022/04/12 12:59:30;;;;;;;;;;;19.60;94.50;;;;;;5011862;28;19936;-60
2022/04/12 13:01:56;;;;;;;;;;;19.70;94.60;;;;;;5012263;28;19952;-61
2022/04/12 13:04:27;;;;;;;;;;;19.80;95.20;;;;;;5011776;28;19913;-60
2022/04/12 13:07:03;;;;;;;;;;;19.80;93.50;;;;;;5010996;28;19922;-61
2022/04/12 13:09:29;;;;;;;;;;;19.80;93.70;;;;;;5009965;28;20019;-60
2022/04/12 13:11:55;;;;;;;;;;;19.80;91.50;;;;;;5011791;28;20439;-61
2022/04/12 13:14:20;;;;;;;;;;;19.90;94.70;;;;;;5011654;28;19924;-61
2022/04/12 13:16:46;;;;;;;;;;;19.90;92.20;;;;;;5012101;28;19914;-60
2022/04/12 13:19:12;;;;;;;;;;;19.90;92.40;;;;;;5011551;28;20294;-60
2022/04/12 13:21:37;;;;;;;;;;;20.00;93.30;;;;;;5011648;28;20284;-59
2022/04/12 13:24:02;;;;;;;;;;;20.00;95.20;;;;;;5012150;28;20295;-60
2022/04/12 13:26:28;;;;;;;;;;;20.10;92.40;;;;;;5009459;28;19975;-58
2022/04/12 13:28:53;;;;;;;;;;;20.10;93.50;;;;;;5019160;28;19922;-58
2022/04/12 13:31:19;;;;;;;;;;;20.20;94.60;;;;;;5014607;28;20332;-59
2022/04/12 13:33:45;;;;;;;;;;;20.20;93.80;;;;;;5010951;28;19924;-59
2022/04/12 13:36:10;;;;;;;;;;;20.20;94.50;;;;;;5012363;28;20307;-59
2022/04/12 13:38:36;;;;;;;;;;;20.20;92.80;;;;;;5011214;28;19921;-60
2022/04/12 13:41:02;;;;;;;;;;;20.20;91.40;;;;;;5011870;28;19940;-59
2022/04/12 13:43:28;;;;;;;;;;;20.10;91.80;;;;;;5011464;28;20464;-59
2022/04/12 13:45:53;;;;;;;;;;;20.10;91.50;;;;;;5011148;28;19917;-60
2022/04/12 13:48:19;;;;;;;;;;;20.00;94.50;;;;;;5010525;28;19922;-59
2022/04/12 13:50:44;;;;;;;;;;;20.10;92.60;;;;;;5013873;28;19921;-58
2022/04/12 13:53:10;;;;;;;;;;;20.10;93.00;;;;;;5017559;28;19973;-58
2022/04/12 13:55:36;;;;;;;;;;;20.10;92.40;;;;;;5016474;28;19917;-58
2022/04/12 13:58:01;;;;;;;;;;;20.10;92.40;;;;;;5005541;28;19924;-59
2022/04/12 14:00:27;;;;;;;;;;;20.10;92.60;;;;;;5010722;28;19914;-59
2022/04/12 14:02:52;;;;;;;;;;;20.10;94.30;;;;;;5010351;28;19917;-59
2022/04/12 14:05:21;;;;;;;;;;;20.20;87.70;;;;;;5011647;28;19917;-60
2022/04/12 14:07:47;;;;;;;;;;;20.20;94.00;;;;;;5010923;28;19944;-60
2022/04/12 14:10:12;;;;;;;;;;;20.20;91.50;;;;;;5017901;28;19921;-59
2022/04/12 14:12:38;;;;;;;;;;;20.20;91.70;;;;;;5015356;28;19918;-59
2022/04/12 14:15:03;;;;;;;;;;;20.20;91.90;;;;;;5016345;28;19913;-59